sensor_id;sensor_type;location;lat;lon;timestamp;P1;durP1;ratioP1;P2;durP2;ratioP2
70373;SDS011;57792;49.198;7.890;2022-07-29T00:00:38;7.50;;;3.80;;
70373;SDS011;57792;49.198;7.890;2022-07-29T00:01:39;6.63;;;3.70;;
70373;SDS011;57792;49.198;7.890;2022-07-29T00:02:39;6.00;;;3.70;;
70373;SDS011;57792;49.198;7.890;2022-07-29T00:03:40;6.55;;;3.75;;
70373;SDS011;57792;49.198;7.890;2022-07-29T00:04:40;7.67;;;3.70;;
70373;SDS011;57792;49.198;7.890;2022-07-29T00:05:41;6.57;;;3.50;;
70373;SDS011;57792;49.198;7.890;2022-07-29T00:06:42;6.03;;;3.65;;
70373;SDS011;57792;49.198;7.890;2022-07-29T00:07:42;7.27;;;3.60;;
70373;SDS011;57792;49.198;7.890;2022-07-29T00:08:42;5.90;;;3.80;;
70373;SDS011;57792;49.198;7.890;2022-07-29T00:09:43;5.87;;;3.90;;
70373;SDS011;57792;49.198;7.890;2022-07-29T00:10:43;6.07;;;3.50;;
70373;SDS011;57792;49.198;7.890;2022-07-29T00:11:44;8.97;;;3.63;;
70373;SDS011;57792;49.198;7.890;2022-07-29T00:12:44;7.57;;;4.03;;
70373;SDS011;57792;49.198;7.890;2022-07-29T00:13:44;6.30;;;3.53;;
70373;SDS011;57792;49.198;7.890;2022-07-29T00:14:45;6.27;;;3.57;;
70373;SDS011;57792;49.198;7.890;2022-07-29T00:15:45;6.83;;;3.50;;
70373;SDS011;57792;49.198;7.890;2022-07-29T00:16:45;5.97;;;3.72;;
70373;SDS011;57792;49.198;7.890;2022-07-29T00:17:46;6.83;;;4.03;;
70373;SDS011;57792;49.198;7.890;2022-07-29T00:18:46;7.00;;;3.67;;
70373;SDS011;57792;49.198;7.890;2022-07-29T00:19:47;5.93;;;3.70;;
70373;SDS011;57792;49.198;7.890;2022-07-29T00:20:47;7.67;;;3.53;;
70373;SDS011;57792;49.198;7.890;2022-07-29T00:21:47;8.30;;;3.80;;
70373;SDS011;57792;49.198;7.890;2022-07-29T00:22:48;6.80;;;3.53;;
70373;SDS011;57792;49.198;7.890;2022-07-29T00:23:48;7.13;;;3.72;;
70373;SDS011;57792;49.198;7.890;2022-07-29T00:24:48;7.37;;;3.80;;
70373;SDS011;57792;49.198;7.890;2022-07-29T00:25:49;6.20;;;3.93;;
70373;SDS011;57792;49.198;7.890;2022-07-29T00:26:52;6.67;;;4.30;;
70373;SDS011;57792;49.198;7.890;2022-07-29T00:27:53;7.53;;;3.80;;
70373;SDS011;57792;49.198;7.890;2022-07-29T00:28:53;6.28;;;4.00;;
70373;SDS011;57792;49.198;7.890;2022-07-29T00:29:54;8.13;;;4.20;;
70373;SDS011;57792;49.198;7.890;2022-07-29T00:30:54;6.80;;;3.87;;
70373;SDS011;57792;49.198;7.890;2022-07-29T00:31:54;6.30;;;4.00;;
70373;SDS011;57792;49.198;7.890;2022-07-29T00:32:55;6.60;;;3.60;;
70373;SDS011;57792;49.198;7.890;2022-07-29T00:33:55;6.97;;;3.50;;
70373;SDS011;57792;49.198;7.890;2022-07-29T00:34:56;8.20;;;3.75;;
70373;SDS011;57792;49.198;7.890;2022-07-29T00:36:15;6.70;;;3.50;;
70373;SDS011;57792;49.198;7.890;2022-07-29T00:37:15;7.00;;;3.70;;
70373;SDS011;57792;49.198;7.890;2022-07-29T00:38:17;6.73;;;3.93;;
70373;SDS011;57792;49.198;7.890;2022-07-29T00:39:18;6.72;;;3.55;;
70373;SDS011;57792;49.198;7.890;2022-07-29T00:40:19;5.60;;;3.60;;
70373;SDS011;57792;49.198;7.890;2022-07-29T00:41:19;6.60;;;3.90;;
70373;SDS011;57792;49.198;7.890;2022-07-29T00:42:20;8.82;;;3.90;;
70373;SDS011;57792;49.198;7.890;2022-07-29T00:43:20;6.87;;;4.50;;
70373;SDS011;57792;49.198;7.890;2022-07-29T00:44:21;9.83;;;3.80;;
70373;SDS011;57792;49.198;7.890;2022-07-29T00:45:21;8.70;;;4.00;;
70373;SDS011;57792;49.198;7.890;2022-07-29T00:46:22;7.97;;;4.30;;
70373;SDS011;57792;49.198;7.890;2022-07-29T00:47:22;8.30;;;4.33;;
70373;SDS011;57792;49.198;7.890;2022-07-29T00:48:23;6.13;;;3.90;;
70373;SDS011;57792;49.198;7.890;2022-07-29T00:49:23;7.50;;;4.55;;
70373;SDS011;57792;49.198;7.890;2022-07-29T00:50:23;7.20;;;3.97;;
70373;SDS011;57792;49.198;7.890;2022-07-29T00:51:25;5.78;;;3.97;;
70373;SDS011;57792;49.198;7.890;2022-07-29T00:52:27;6.50;;;3.80;;
70373;SDS011;57792;49.198;7.890;2022-07-29T00:53:27;6.23;;;3.93;;
70373;SDS011;57792;49.198;7.890;2022-07-29T00:54:28;6.63;;;3.70;;
70373;SDS011;57792;49.198;7.890;2022-07-29T00:55:29;7.43;;;3.90;;
70373;SDS011;57792;49.198;7.890;2022-07-29T00:56:30;7.95;;;3.88;;
70373;SDS011;57792;49.198;7.890;2022-07-29T00:57:31;7.68;;;3.97;;
70373;SDS011;57792;49.198;7.890;2022-07-29T00:58:32;8.43;;;4.00;;
70373;SDS011;57792;49.198;7.890;2022-07-29T00:59:33;8.17;;;3.97;;
70373;SDS011;57792;49.198;7.890;2022-07-29T01:00:34;7.18;;;4.10;;
70373;SDS011;57792;49.198;7.890;2022-07-29T01:01:34;8.60;;;4.27;;
70373;SDS011;57792;49.198;7.890;2022-07-29T01:02:35;6.70;;;4.10;;
70373;SDS011;57792;49.198;7.890;2022-07-29T01:03:35;7.72;;;4.10;;
70373;SDS011;57792;49.198;7.890;2022-07-29T01:04:36;5.77;;;3.70;;
70373;SDS011;57792;49.198;7.890;2022-07-29T01:05:36;7.07;;;4.00;;
70373;SDS011;57792;49.198;7.890;2022-07-29T01:06:37;7.35;;;3.90;;
70373;SDS011;57792;49.198;7.890;2022-07-29T01:07:38;6.57;;;4.15;;
70373;SDS011;57792;49.198;7.890;2022-07-29T01:08:39;6.47;;;3.95;;
70373;SDS011;57792;49.198;7.890;2022-07-29T01:09:40;10.03;;;4.00;;
70373;SDS011;57792;49.198;7.890;2022-07-29T01:10:41;7.65;;;4.07;;
70373;SDS011;57792;49.198;7.890;2022-07-29T01:11:43;6.45;;;3.83;;
70373;SDS011;57792;49.198;7.890;2022-07-29T01:12:48;6.95;;;4.20;;
70373;SDS011;57792;49.198;7.890;2022-07-29T01:13:50;7.50;;;4.60;;
70373;SDS011;57792;49.198;7.890;2022-07-29T01:14:53;9.30;;;4.00;;
70373;SDS011;57792;49.198;7.890;2022-07-29T01:15:56;7.63;;;4.10;;
70373;SDS011;57792;49.198;7.890;2022-07-29T01:17:08;6.80;;;4.10;;
70373;SDS011;57792;49.198;7.890;2022-07-29T01:18:18;7.57;;;4.40;;
70373;SDS011;57792;49.198;7.890;2022-07-29T01:21:49;7.85;;;4.15;;
70373;SDS011;57792;49.198;7.890;2022-07-29T01:30:41;7.80;;;4.20;;
70373;SDS011;57792;49.198;7.890;2022-07-29T01:33:10;6.40;;;4.30;;
70373;SDS011;57792;49.198;7.890;2022-07-29T01:35:48;7.32;;;4.60;;
70373;SDS011;57792;49.198;7.890;2022-07-29T01:36:57;7.43;;;4.40;;
70373;SDS011;57792;49.198;7.890;2022-07-29T01:38:12;7.40;;;4.50;;
70373;SDS011;57792;49.198;7.890;2022-07-29T01:39:23;7.32;;;4.25;;
70373;SDS011;57792;49.198;7.890;2022-07-29T01:40:31;6.40;;;4.40;;
70373;SDS011;57792;49.198;7.890;2022-07-29T01:41:36;6.85;;;4.32;;
70373;SDS011;57792;49.198;7.890;2022-07-29T01:42:54;8.27;;;4.63;;
70373;SDS011;57792;49.198;7.890;2022-07-29T01:43:57;7.13;;;4.45;;
70373;SDS011;57792;49.198;7.890;2022-07-29T01:46:33;7.95;;;4.60;;
70373;SDS011;57792;49.198;7.890;2022-07-29T01:47:59;6.97;;;4.22;;
70373;SDS011;57792;49.198;7.890;2022-07-29T01:49:17;6.70;;;4.50;;
70373;SDS011;57792;49.198;7.890;2022-07-29T01:50:22;8.30;;;4.30;;
70373;SDS011;57792;49.198;7.890;2022-07-29T01:51:32;8.10;;;4.68;;
70373;SDS011;57792;49.198;7.890;2022-07-29T01:54:13;6.43;;;4.30;;
70373;SDS011;57792;49.198;7.890;2022-07-29T01:55:18;7.70;;;4.60;;
70373;SDS011;57792;49.198;7.890;2022-07-29T01:56:22;7.32;;;4.57;;
70373;SDS011;57792;49.198;7.890;2022-07-29T01:57:26;8.20;;;4.50;;
70373;SDS011;57792;49.198;7.890;2022-07-29T01:58:29;8.60;;;4.55;;
70373;SDS011;57792;49.198;7.890;2022-07-29T01:59:32;8.32;;;4.70;;
70373;SDS011;57792;49.198;7.890;2022-07-29T02:00:35;8.10;;;4.40;;
70373;SDS011;57792;49.198;7.890;2022-07-29T02:01:37;6.33;;;4.43;;
70373;SDS011;57792;49.198;7.890;2022-07-29T02:02:41;8.25;;;4.38;;
70373;SDS011;57792;49.198;7.890;2022-07-29T02:03:44;9.25;;;4.43;;
70373;SDS011;57792;49.198;7.890;2022-07-29T02:04:46;7.32;;;4.25;;
70373;SDS011;57792;49.198;7.890;2022-07-29T02:05:49;7.22;;;4.60;;
70373;SDS011;57792;49.198;7.890;2022-07-29T02:06:52;8.02;;;4.60;;
70373;SDS011;57792;49.198;7.890;2022-07-29T02:07:54;6.93;;;4.65;;
70373;SDS011;57792;49.198;7.890;2022-07-29T02:08:57;7.82;;;4.35;;
70373;SDS011;57792;49.198;7.890;2022-07-29T02:09:58;8.90;;;4.55;;
70373;SDS011;57792;49.198;7.890;2022-07-29T02:11:01;6.65;;;4.03;;
70373;SDS011;57792;49.198;7.890;2022-07-29T02:12:04;7.27;;;4.70;;
70373;SDS011;57792;49.198;7.890;2022-07-29T02:13:07;7.40;;;4.65;;
70373;SDS011;57792;49.198;7.890;2022-07-29T02:14:09;8.25;;;4.78;;
70373;SDS011;57792;49.198;7.890;2022-07-29T02:15:12;6.50;;;4.75;;
70373;SDS011;57792;49.198;7.890;2022-07-29T02:16:14;8.52;;;4.63;;
70373;SDS011;57792;49.198;7.890;2022-07-29T02:17:20;7.50;;;4.22;;
70373;SDS011;57792;49.198;7.890;2022-07-29T02:18:27;7.03;;;4.53;;
70373;SDS011;57792;49.198;7.890;2022-07-29T02:19:31;7.63;;;4.50;;
70373;SDS011;57792;49.198;7.890;2022-07-29T02:20:33;8.00;;;4.93;;
70373;SDS011;57792;49.198;7.890;2022-07-29T02:21:34;7.55;;;4.20;;
70373;SDS011;57792;49.198;7.890;2022-07-29T02:22:37;8.50;;;4.90;;
70373;SDS011;57792;49.198;7.890;2022-07-29T02:23:39;7.63;;;4.40;;
70373;SDS011;57792;49.198;7.890;2022-07-29T02:24:39;7.50;;;4.53;;
70373;SDS011;57792;49.198;7.890;2022-07-29T02:25:41;10.02;;;4.78;;
70373;SDS011;57792;49.198;7.890;2022-07-29T02:26:43;6.85;;;5.00;;
70373;SDS011;57792;49.198;7.890;2022-07-29T02:27:45;8.60;;;4.80;;
70373;SDS011;57792;49.198;7.890;2022-07-29T02:28:47;10.07;;;4.25;;
70373;SDS011;57792;49.198;7.890;2022-07-29T02:29:49;6.80;;;4.32;;
70373;SDS011;57792;49.198;7.890;2022-07-29T02:30:53;8.98;;;4.90;;
70373;SDS011;57792;49.198;7.890;2022-07-29T02:31:58;8.98;;;4.50;;
70373;SDS011;57792;49.198;7.890;2022-07-29T02:32:59;7.53;;;4.53;;
70373;SDS011;57792;49.198;7.890;2022-07-29T02:34:05;9.23;;;4.55;;
70373;SDS011;57792;49.198;7.890;2022-07-29T02:35:08;8.13;;;5.32;;
70373;SDS011;57792;49.198;7.890;2022-07-29T02:36:09;7.72;;;4.90;;
70373;SDS011;57792;49.198;7.890;2022-07-29T02:37:11;8.80;;;4.55;;
70373;SDS011;57792;49.198;7.890;2022-07-29T02:38:13;8.33;;;4.77;;
70373;SDS011;57792;49.198;7.890;2022-07-29T02:39:34;8.07;;;4.78;;
70373;SDS011;57792;49.198;7.890;2022-07-29T02:40:35;6.50;;;4.68;;
70373;SDS011;57792;49.198;7.890;2022-07-29T02:41:43;9.75;;;5.15;;
70373;SDS011;57792;49.198;7.890;2022-07-29T02:42:48;10.60;;;5.03;;
70373;SDS011;57792;49.198;7.890;2022-07-29T02:43:50;7.80;;;4.70;;
70373;SDS011;57792;49.198;7.890;2022-07-29T02:44:55;6.68;;;4.70;;
70373;SDS011;57792;49.198;7.890;2022-07-29T02:45:56;7.10;;;4.60;;
70373;SDS011;57792;49.198;7.890;2022-07-29T02:48:19;6.57;;;4.30;;
70373;SDS011;57792;49.198;7.890;2022-07-29T02:49:31;7.97;;;4.60;;
70373;SDS011;57792;49.198;7.890;2022-07-29T02:50:34;7.32;;;4.55;;
70373;SDS011;57792;49.198;7.890;2022-07-29T02:51:41;7.37;;;4.70;;
70373;SDS011;57792;49.198;7.890;2022-07-29T02:52:47;7.13;;;4.45;;
70373;SDS011;57792;49.198;7.890;2022-07-29T02:53:55;8.15;;;4.43;;
70373;SDS011;57792;49.198;7.890;2022-07-29T02:55:22;10.30;;;4.97;;
70373;SDS011;57792;49.198;7.890;2022-07-29T02:56:36;7.45;;;4.50;;
70373;SDS011;57792;49.198;7.890;2022-07-29T02:57:44;8.98;;;4.50;;
70373;SDS011;57792;49.198;7.890;2022-07-29T02:58:49;7.68;;;5.00;;
70373;SDS011;57792;49.198;7.890;2022-07-29T02:59:56;8.68;;;4.80;;
70373;SDS011;57792;49.198;7.890;2022-07-29T03:01:02;7.47;;;4.82;;
70373;SDS011;57792;49.198;7.890;2022-07-29T03:02:04;8.80;;;5.00;;
70373;SDS011;57792;49.198;7.890;2022-07-29T03:03:11;6.77;;;4.67;;
70373;SDS011;57792;49.198;7.890;2022-07-29T03:04:13;7.93;;;4.90;;
70373;SDS011;57792;49.198;7.890;2022-07-29T03:05:16;8.35;;;4.82;;
70373;SDS011;57792;49.198;7.890;2022-07-29T03:06:20;8.18;;;4.60;;
70373;SDS011;57792;49.198;7.890;2022-07-29T03:07:23;7.20;;;4.72;;
70373;SDS011;57792;49.198;7.890;2022-07-29T03:08:25;8.25;;;4.38;;
70373;SDS011;57792;49.198;7.890;2022-07-29T03:09:27;7.60;;;4.80;;
70373;SDS011;57792;49.198;7.890;2022-07-29T03:10:29;8.38;;;4.80;;
70373;SDS011;57792;49.198;7.890;2022-07-29T03:11:31;8.45;;;4.57;;
70373;SDS011;57792;49.198;7.890;2022-07-29T03:12:32;7.28;;;4.68;;
70373;SDS011;57792;49.198;7.890;2022-07-29T03:13:33;7.87;;;4.90;;
70373;SDS011;57792;49.198;7.890;2022-07-29T03:14:34;7.20;;;4.68;;
70373;SDS011;57792;49.198;7.890;2022-07-29T03:15:36;9.38;;;4.35;;
70373;SDS011;57792;49.198;7.890;2022-07-29T03:16:37;7.32;;;4.53;;
70373;SDS011;57792;49.198;7.890;2022-07-29T03:17:38;8.30;;;4.77;;
70373;SDS011;57792;49.198;7.890;2022-07-29T03:18:39;9.55;;;4.70;;
70373;SDS011;57792;49.198;7.890;2022-07-29T03:19:40;7.38;;;4.55;;
70373;SDS011;57792;49.198;7.890;2022-07-29T03:20:41;6.97;;;4.30;;
70373;SDS011;57792;49.198;7.890;2022-07-29T03:21:42;7.77;;;4.77;;
70373;SDS011;57792;49.198;7.890;2022-07-29T03:22:42;7.78;;;4.65;;
70373;SDS011;57792;49.198;7.890;2022-07-29T03:23:44;6.78;;;4.40;;
70373;SDS011;57792;49.198;7.890;2022-07-29T03:24:47;6.87;;;4.63;;
70373;SDS011;57792;49.198;7.890;2022-07-29T03:25:48;7.97;;;4.73;;
70373;SDS011;57792;49.198;7.890;2022-07-29T03:26:49;8.70;;;4.60;;
70373;SDS011;57792;49.198;7.890;2022-07-29T03:27:50;8.47;;;4.80;;
70373;SDS011;57792;49.198;7.890;2022-07-29T03:28:50;8.00;;;4.60;;
70373;SDS011;57792;49.198;7.890;2022-07-29T03:29:51;6.28;;;4.50;;
70373;SDS011;57792;49.198;7.890;2022-07-29T03:30:51;7.17;;;4.70;;
70373;SDS011;57792;49.198;7.890;2022-07-29T03:31:51;7.73;;;5.00;;
70373;SDS011;57792;49.198;7.890;2022-07-29T03:32:52;7.75;;;4.80;;
70373;SDS011;57792;49.198;7.890;2022-07-29T03:33:53;7.37;;;4.90;;
70373;SDS011;57792;49.198;7.890;2022-07-29T03:34:53;7.60;;;5.00;;
70373;SDS011;57792;49.198;7.890;2022-07-29T03:35:53;7.97;;;4.60;;
70373;SDS011;57792;49.198;7.890;2022-07-29T03:36:54;7.73;;;4.70;;
70373;SDS011;57792;49.198;7.890;2022-07-29T03:37:54;8.37;;;4.43;;
70373;SDS011;57792;49.198;7.890;2022-07-29T03:38:55;7.43;;;4.78;;
70373;SDS011;57792;49.198;7.890;2022-07-29T03:39:56;8.50;;;4.78;;
70373;SDS011;57792;49.198;7.890;2022-07-29T03:40:58;7.73;;;5.10;;
70373;SDS011;57792;49.198;7.890;2022-07-29T03:42:03;7.63;;;5.07;;
70373;SDS011;57792;49.198;7.890;2022-07-29T03:43:06;8.60;;;4.93;;
70373;SDS011;57792;49.198;7.890;2022-07-29T03:44:09;8.95;;;5.10;;
70373;SDS011;57792;49.198;7.890;2022-07-29T03:45:12;7.82;;;4.82;;
70373;SDS011;57792;49.198;7.890;2022-07-29T03:46:15;7.57;;;5.20;;
70373;SDS011;57792;49.198;7.890;2022-07-29T03:47:18;8.50;;;4.95;;
70373;SDS011;57792;49.198;7.890;2022-07-29T03:48:22;7.60;;;4.90;;
70373;SDS011;57792;49.198;7.890;2022-07-29T03:49:26;7.22;;;4.82;;
70373;SDS011;57792;49.198;7.890;2022-07-29T03:50:28;7.47;;;4.80;;
70373;SDS011;57792;49.198;7.890;2022-07-29T03:51:30;6.67;;;4.73;;
70373;SDS011;57792;49.198;7.890;2022-07-29T03:52:31;9.15;;;4.55;;
70373;SDS011;57792;49.198;7.890;2022-07-29T03:53:31;8.67;;;4.67;;
70373;SDS011;57792;49.198;7.890;2022-07-29T03:54:32;8.23;;;4.80;;
70373;SDS011;57792;49.198;7.890;2022-07-29T03:55:36;8.57;;;5.00;;
70373;SDS011;57792;49.198;7.890;2022-07-29T03:56:41;8.23;;;4.50;;
70373;SDS011;57792;49.198;7.890;2022-07-29T03:57:46;8.95;;;4.80;;
70373;SDS011;57792;49.198;7.890;2022-07-29T03:58:51;8.88;;;4.88;;
70373;SDS011;57792;49.198;7.890;2022-07-29T03:59:52;7.32;;;5.10;;
70373;SDS011;57792;49.198;7.890;2022-07-29T04:00:54;6.80;;;4.73;;
70373;SDS011;57792;49.198;7.890;2022-07-29T04:01:55;7.63;;;4.60;;
70373;SDS011;57792;49.198;7.890;2022-07-29T04:02:57;9.10;;;4.75;;
70373;SDS011;57792;49.198;7.890;2022-07-29T04:03:57;7.30;;;4.82;;
70373;SDS011;57792;49.198;7.890;2022-07-29T04:04:58;7.30;;;4.80;;
70373;SDS011;57792;49.198;7.890;2022-07-29T04:05:59;9.63;;;4.88;;
70373;SDS011;57792;49.198;7.890;2022-07-29T04:07:01;8.10;;;4.80;;
70373;SDS011;57792;49.198;7.890;2022-07-29T04:08:02;8.37;;;4.90;;
70373;SDS011;57792;49.198;7.890;2022-07-29T04:09:03;7.43;;;4.75;;
70373;SDS011;57792;49.198;7.890;2022-07-29T04:10:03;7.70;;;4.77;;
70373;SDS011;57792;49.198;7.890;2022-07-29T04:11:04;7.77;;;5.10;;
70373;SDS011;57792;49.198;7.890;2022-07-29T04:12:05;9.02;;;5.53;;
70373;SDS011;57792;49.198;7.890;2022-07-29T04:13:06;7.97;;;5.50;;
70373;SDS011;57792;49.198;7.890;2022-07-29T04:14:06;7.90;;;4.87;;
70373;SDS011;57792;49.198;7.890;2022-07-29T04:15:07;8.97;;;4.93;;
70373;SDS011;57792;49.198;7.890;2022-07-29T04:16:07;10.02;;;5.20;;
70373;SDS011;57792;49.198;7.890;2022-07-29T04:17:08;7.67;;;5.17;;
70373;SDS011;57792;49.198;7.890;2022-07-29T04:18:08;10.53;;;5.40;;
70373;SDS011;57792;49.198;7.890;2022-07-29T04:19:08;8.18;;;5.50;;
70373;SDS011;57792;49.198;7.890;2022-07-29T04:20:09;7.20;;;5.10;;
70373;SDS011;57792;49.198;7.890;2022-07-29T04:21:13;7.63;;;5.38;;
70373;SDS011;57792;49.198;7.890;2022-07-29T04:22:13;7.97;;;5.50;;
70373;SDS011;57792;49.198;7.890;2022-07-29T04:23:14;9.10;;;5.00;;
70373;SDS011;57792;49.198;7.890;2022-07-29T04:24:14;7.40;;;5.13;;
70373;SDS011;57792;49.198;7.890;2022-07-29T04:25:14;7.57;;;5.03;;
70373;SDS011;57792;49.198;7.890;2022-07-29T04:26:15;7.70;;;5.03;;
70373;SDS011;57792;49.198;7.890;2022-07-29T04:27:17;11.75;;;5.20;;
70373;SDS011;57792;49.198;7.890;2022-07-29T04:28:17;8.45;;;5.30;;
70373;SDS011;57792;49.198;7.890;2022-07-29T04:29:18;8.90;;;5.10;;
70373;SDS011;57792;49.198;7.890;2022-07-29T04:30:18;7.77;;;5.17;;
70373;SDS011;57792;49.198;7.890;2022-07-29T04:31:18;7.03;;;4.80;;
70373;SDS011;57792;49.198;7.890;2022-07-29T04:32:19;7.93;;;5.07;;
70373;SDS011;57792;49.198;7.890;2022-07-29T04:33:19;7.67;;;5.03;;
70373;SDS011;57792;49.198;7.890;2022-07-29T04:34:19;7.77;;;5.00;;
70373;SDS011;57792;49.198;7.890;2022-07-29T04:35:20;6.82;;;4.75;;
70373;SDS011;57792;49.198;7.890;2022-07-29T04:36:21;8.13;;;4.83;;
70373;SDS011;57792;49.198;7.890;2022-07-29T04:37:21;7.07;;;4.67;;
70373;SDS011;57792;49.198;7.890;2022-07-29T04:38:21;7.30;;;4.90;;
70373;SDS011;57792;49.198;7.890;2022-07-29T04:39:22;8.80;;;4.90;;
70373;SDS011;57792;49.198;7.890;2022-07-29T04:40:22;8.80;;;5.00;;
70373;SDS011;57792;49.198;7.890;2022-07-29T04:41:23;8.13;;;5.10;;
70373;SDS011;57792;49.198;7.890;2022-07-29T04:42:23;7.30;;;4.80;;
70373;SDS011;57792;49.198;7.890;2022-07-29T04:43:23;6.73;;;4.60;;
70373;SDS011;57792;49.198;7.890;2022-07-29T04:44:24;8.03;;;5.13;;
70373;SDS011;57792;49.198;7.890;2022-07-29T04:45:24;9.30;;;5.00;;
70373;SDS011;57792;49.198;7.890;2022-07-29T04:46:25;8.80;;;5.33;;
70373;SDS011;57792;49.198;7.890;2022-07-29T04:47:25;6.97;;;5.00;;
70373;SDS011;57792;49.198;7.890;2022-07-29T04:48:25;9.87;;;5.30;;
70373;SDS011;57792;49.198;7.890;2022-07-29T04:49:26;8.05;;;4.88;;
70373;SDS011;57792;49.198;7.890;2022-07-29T04:50:27;9.37;;;4.90;;
70373;SDS011;57792;49.198;7.890;2022-07-29T04:51:27;9.30;;;5.30;;
70373;SDS011;57792;49.198;7.890;2022-07-29T04:52:28;11.43;;;5.17;;
70373;SDS011;57792;49.198;7.890;2022-07-29T04:53:28;8.43;;;4.97;;
70373;SDS011;57792;49.198;7.890;2022-07-29T04:54:28;8.00;;;5.07;;
70373;SDS011;57792;49.198;7.890;2022-07-29T04:55:29;9.40;;;5.25;;
70373;SDS011;57792;49.198;7.890;2022-07-29T04:56:29;7.63;;;5.00;;
70373;SDS011;57792;49.198;7.890;2022-07-29T04:57:30;7.77;;;5.27;;
70373;SDS011;57792;49.198;7.890;2022-07-29T04:58:30;9.13;;;5.10;;
70373;SDS011;57792;49.198;7.890;2022-07-29T04:59:31;8.97;;;5.20;;
70373;SDS011;57792;49.198;7.890;2022-07-29T05:00:31;9.67;;;5.10;;
70373;SDS011;57792;49.198;7.890;2022-07-29T05:01:32;8.07;;;5.07;;
70373;SDS011;57792;49.198;7.890;2022-07-29T05:02:32;7.63;;;5.20;;
70373;SDS011;57792;49.198;7.890;2022-07-29T05:03:32;9.23;;;5.00;;
70373;SDS011;57792;49.198;7.890;2022-07-29T05:04:33;8.30;;;5.10;;
70373;SDS011;57792;49.198;7.890;2022-07-29T05:05:33;8.37;;;5.00;;
70373;SDS011;57792;49.198;7.890;2022-07-29T05:06:33;8.55;;;5.45;;
70373;SDS011;57792;49.198;7.890;2022-07-29T05:07:34;8.90;;;4.87;;
70373;SDS011;57792;49.198;7.890;2022-07-29T05:08:34;7.67;;;5.10;;
70373;SDS011;57792;49.198;7.890;2022-07-29T05:09:35;12.63;;;5.20;;
70373;SDS011;57792;49.198;7.890;2022-07-29T05:10:35;9.00;;;5.30;;
70373;SDS011;57792;49.198;7.890;2022-07-29T05:11:37;8.17;;;4.90;;
70373;SDS011;57792;49.198;7.890;2022-07-29T05:12:38;7.97;;;5.10;;
70373;SDS011;57792;49.198;7.890;2022-07-29T05:13:38;7.50;;;4.60;;
70373;SDS011;57792;49.198;7.890;2022-07-29T05:14:39;9.13;;;5.22;;
70373;SDS011;57792;49.198;7.890;2022-07-29T05:15:39;8.73;;;5.13;;
70373;SDS011;57792;49.198;7.890;2022-07-29T05:16:40;7.70;;;5.20;;
70373;SDS011;57792;49.198;7.890;2022-07-29T05:17:40;10.37;;;5.10;;
70373;SDS011;57792;49.198;7.890;2022-07-29T05:18:41;8.90;;;4.82;;
70373;SDS011;57792;49.198;7.890;2022-07-29T05:19:42;8.25;;;5.30;;
70373;SDS011;57792;49.198;7.890;2022-07-29T05:20:42;7.67;;;5.00;;
70373;SDS011;57792;49.198;7.890;2022-07-29T05:21:44;8.77;;;5.20;;
70373;SDS011;57792;49.198;7.890;2022-07-29T05:22:44;8.45;;;4.80;;
70373;SDS011;57792;49.198;7.890;2022-07-29T05:23:45;9.70;;;5.13;;
70373;SDS011;57792;49.198;7.890;2022-07-29T05:24:45;8.27;;;5.10;;
70373;SDS011;57792;49.198;7.890;2022-07-29T05:25:46;8.37;;;4.97;;
70373;SDS011;57792;49.198;7.890;2022-07-29T05:26:46;7.68;;;5.32;;
70373;SDS011;57792;49.198;7.890;2022-07-29T05:27:47;7.70;;;5.27;;
70373;SDS011;57792;49.198;7.890;2022-07-29T05:28:47;8.63;;;5.30;;
70373;SDS011;57792;49.198;7.890;2022-07-29T05:29:48;7.95;;;5.10;;
70373;SDS011;57792;49.198;7.890;2022-07-29T05:30:48;8.20;;;5.00;;
70373;SDS011;57792;49.198;7.890;2022-07-29T05:31:49;8.63;;;4.97;;
70373;SDS011;57792;49.198;7.890;2022-07-29T05:32:51;9.05;;;5.10;;
70373;SDS011;57792;49.198;7.890;2022-07-29T05:33:51;7.63;;;5.03;;
70373;SDS011;57792;49.198;7.890;2022-07-29T05:34:52;8.13;;;4.60;;
70373;SDS011;57792;49.198;7.890;2022-07-29T05:35:52;7.30;;;4.80;;
70373;SDS011;57792;49.198;7.890;2022-07-29T05:36:52;8.60;;;5.00;;
70373;SDS011;57792;49.198;7.890;2022-07-29T05:37:53;8.10;;;4.80;;
70373;SDS011;57792;49.198;7.890;2022-07-29T05:38:54;9.40;;;4.90;;
70373;SDS011;57792;49.198;7.890;2022-07-29T05:39:54;7.15;;;4.60;;
70373;SDS011;57792;49.198;7.890;2022-07-29T05:40:56;6.80;;;4.40;;
70373;SDS011;57792;49.198;7.890;2022-07-29T05:41:57;7.80;;;4.75;;
70373;SDS011;57792;49.198;7.890;2022-07-29T05:42:57;8.37;;;4.70;;
70373;SDS011;57792;49.198;7.890;2022-07-29T05:43:58;6.73;;;4.20;;
70373;SDS011;57792;49.198;7.890;2022-07-29T05:44:58;8.30;;;4.65;;
70373;SDS011;57792;49.198;7.890;2022-07-29T05:45:59;7.20;;;4.57;;
70373;SDS011;57792;49.198;7.890;2022-07-29T05:46:59;7.13;;;4.37;;
70373;SDS011;57792;49.198;7.890;2022-07-29T05:47:59;6.90;;;4.50;;
70373;SDS011;57792;49.198;7.890;2022-07-29T05:49:00;6.10;;;4.43;;
70373;SDS011;57792;49.198;7.890;2022-07-29T05:50:01;6.65;;;4.20;;
70373;SDS011;57792;49.198;7.890;2022-07-29T05:51:01;7.10;;;4.67;;
70373;SDS011;57792;49.198;7.890;2022-07-29T05:52:02;6.90;;;4.30;;
70373;SDS011;57792;49.198;7.890;2022-07-29T05:53:02;6.50;;;4.65;;
70373;SDS011;57792;49.198;7.890;2022-07-29T05:54:03;7.20;;;4.37;;
70373;SDS011;57792;49.198;7.890;2022-07-29T05:55:04;8.40;;;4.65;;
70373;SDS011;57792;49.198;7.890;2022-07-29T05:56:05;7.45;;;4.32;;
70373;SDS011;57792;49.198;7.890;2022-07-29T05:57:07;8.02;;;4.07;;
70373;SDS011;57792;49.198;7.890;2022-07-29T05:58:07;6.70;;;4.50;;
70373;SDS011;57792;49.198;7.890;2022-07-29T05:59:08;8.03;;;4.73;;
70373;SDS011;57792;49.198;7.890;2022-07-29T06:00:08;8.03;;;4.50;;
70373;SDS011;57792;49.198;7.890;2022-07-29T06:01:09;7.47;;;4.20;;
70373;SDS011;57792;49.198;7.890;2022-07-29T06:02:10;9.25;;;4.75;;
70373;SDS011;57792;49.198;7.890;2022-07-29T06:03:11;8.13;;;4.28;;
70373;SDS011;57792;49.198;7.890;2022-07-29T06:04:12;8.07;;;4.40;;
70373;SDS011;57792;49.198;7.890;2022-07-29T06:05:12;6.05;;;4.30;;
70373;SDS011;57792;49.198;7.890;2022-07-29T06:06:12;8.13;;;4.30;;
70373;SDS011;57792;49.198;7.890;2022-07-29T06:07:13;6.60;;;4.50;;
70373;SDS011;57792;49.198;7.890;2022-07-29T06:08:13;6.70;;;4.30;;
70373;SDS011;57792;49.198;7.890;2022-07-29T06:09:14;6.77;;;4.17;;
70373;SDS011;57792;49.198;7.890;2022-07-29T06:10:14;7.10;;;4.10;;
70373;SDS011;57792;49.198;7.890;2022-07-29T06:11:15;6.53;;;4.20;;
70373;SDS011;57792;49.198;7.890;2022-07-29T06:12:15;6.53;;;4.10;;
70373;SDS011;57792;49.198;7.890;2022-07-29T06:13:16;7.53;;;4.17;;
70373;SDS011;57792;49.198;7.890;2022-07-29T06:14:16;6.57;;;4.15;;
70373;SDS011;57792;49.198;7.890;2022-07-29T06:15:16;7.57;;;3.80;;
70373;SDS011;57792;49.198;7.890;2022-07-29T06:16:17;8.90;;;3.93;;
70373;SDS011;57792;49.198;7.890;2022-07-29T06:17:17;6.60;;;4.07;;
70373;SDS011;57792;49.198;7.890;2022-07-29T06:18:18;7.05;;;3.80;;
70373;SDS011;57792;49.198;7.890;2022-07-29T06:19:18;8.13;;;4.03;;
70373;SDS011;57792;49.198;7.890;2022-07-29T06:20:18;8.63;;;4.00;;
70373;SDS011;57792;49.198;7.890;2022-07-29T06:21:19;8.13;;;4.00;;
70373;SDS011;57792;49.198;7.890;2022-07-29T06:22:19;5.93;;;4.03;;
70373;SDS011;57792;49.198;7.890;2022-07-29T06:23:20;7.83;;;4.10;;
70373;SDS011;57792;49.198;7.890;2022-07-29T06:24:20;5.95;;;4.03;;
70373;SDS011;57792;49.198;7.890;2022-07-29T06:25:21;7.47;;;3.80;;
70373;SDS011;57792;49.198;7.890;2022-07-29T06:26:21;6.03;;;3.60;;
70373;SDS011;57792;49.198;7.890;2022-07-29T06:27:22;5.90;;;3.80;;
70373;SDS011;57792;49.198;7.890;2022-07-29T06:28:23;9.57;;;4.10;;
70373;SDS011;57792;49.198;7.890;2022-07-29T06:29:23;7.17;;;4.13;;
70373;SDS011;57792;49.198;7.890;2022-07-29T06:30:23;6.33;;;4.00;;
70373;SDS011;57792;49.198;7.890;2022-07-29T06:31:24;7.65;;;4.20;;